createdAt,value
2023-01-13T00:01:56.000Z,99898.02
2023-01-13T00:06:58.572Z,99902.45
2023-01-13T00:12:01.299Z,99899.23
2023-01-13T00:17:04.662Z,99898.11
2023-01-13T00:22:07.461Z,99903.43
2023-01-13T00:27:10.088Z,99908.98
2023-01-13T00:32:13.097Z,99904.40
2023-01-13T00:37:15.741Z,99901.06
2023-01-13T00:42:37.894Z,99893.89
2023-01-13T00:47:40.727Z,99892.41
2023-01-13T00:52:43.305Z,99891.84
2023-01-13T00:57:45.968Z,99893.86
2023-01-13T01:02:48.666Z,99893.08
2023-01-13T01:07:51.720Z,99894.91
2023-01-13T01:12:54.451Z,99897.14
2023-01-13T01:17:57.118Z,99897.35
2023-01-13T01:22:59.791Z,99902.48
2023-01-13T01:28:02.855Z,99901.56
2023-01-13T01:33:05.744Z,99901.90
2023-01-13T01:38:08.699Z,99896.55
2023-01-13T01:43:38.682Z,99892.73
2023-01-13T01:48:42.995Z,99889.84
2023-01-13T01:53:48.096Z,99887.95
2023-01-13T01:58:54.062Z,99883.80
2023-01-13T02:04:02.639Z,99878.45
2023-01-13T02:09:05.485Z,99878.03
2023-01-13T02:14:08.380Z,99877.02
2023-01-13T02:19:48.561Z,99873.73
2023-01-13T02:25:21.140Z,99864.16
2023-01-13T02:31:00.555Z,99863.38
2023-01-13T02:36:48.225Z,99867.39
2023-01-13T02:42:43.197Z,99865.77
2023-01-13T02:47:50.327Z,99863.15
2023-01-13T02:52:58.590Z,99857.60
2023-01-13T02:58:03.464Z,99851.20
2023-01-13T03:03:05.974Z,99854.33
2023-01-13T03:08:34.467Z,99849.92
2023-01-13T03:14:02.121Z,99840.08
2023-01-13T03:19:15.212Z,99829.42
2023-01-13T03:24:28.282Z,99830.53
2023-01-13T03:29:37.007Z,99832.29
2023-01-13T03:34:50.375Z,99829.65
2023-01-13T03:40:00.385Z,99834.66
2023-01-13T03:45:12.913Z,99834.13
2023-01-13T03:50:22.600Z,99832.35
2023-01-13T03:55:31.751Z,99827.33
2023-01-13T04:00:42.976Z,99826.75
2023-01-13T04:05:51.470Z,99833.95
2023-01-13T04:11:26.697Z,99828.20
2023-01-13T04:16:29.440Z,99821.95
2023-01-13T04:21:33.519Z,99827.95
2023-01-13T04:26:36.084Z,99824.73
2023-01-13T04:31:38.812Z,99828.42
2023-01-13T04:36:41.332Z,99833.08
2023-01-13T04:41:59.333Z,99827.97
2023-01-13T04:47:03.097Z,99825.70
2023-01-13T04:52:07.287Z,99831.99
2023-01-13T04:57:10.120Z,99832.77
2023-01-13T05:02:19.812Z,99832.45
2023-01-13T05:07:22.568Z,99845.20
2023-01-13T05:12:43.916Z,99850.92
2023-01-13T05:17:46.692Z,99857.42
2023-01-13T05:23:08.216Z,99866.16
2023-01-13T05:28:10.766Z,99878.64
2023-01-13T05:33:15.804Z,99894.95
2023-01-13T05:38:18.721Z,99899.48
2023-01-13T05:43:22.450Z,99902.91
2023-01-13T05:48:37.296Z,99903.14
2023-01-13T05:53:40.985Z,99900.55
2023-01-13T05:58:44.751Z,99914.20
2023-01-13T06:03:47.763Z,99921.20
2023-01-13T06:08:50.434Z,99925.31
2023-01-13T06:13:53.274Z,99921.30
2023-01-13T06:18:55.993Z,99906.82
2023-01-13T06:23:59.116Z,99891.15
2023-01-13T06:29:01.856Z,99910.21
2023-01-13T06:34:12.560Z,99892.54
2023-01-13T06:39:19.219Z,99899.15
2023-01-13T06:44:23.986Z,99903.05
2023-01-13T06:49:26.568Z,99898.60
2023-01-13T06:54:29.180Z,99888.52
2023-01-13T06:59:34.441Z,99865.73
2023-01-13T07:04:37.094Z,99873.30
2023-01-13T07:09:40.042Z,99886.90
2023-01-13T07:15:01.173Z,99897.06
2023-01-13T07:20:04.183Z,99887.93
2023-01-13T07:25:07.594Z,99871.22
2023-01-13T07:30:10.939Z,99859.27
2023-01-13T07:35:13.603Z,99869.91
2023-01-13T07:40:16.529Z,99890.96
2023-01-13T07:45:19.160Z,99876.31
2023-01-13T07:50:23.695Z,99876.59
2023-01-13T07:55:26.409Z,99897.61
2023-01-13T08:00:29.311Z,99891.88
2023-01-13T08:05:32.317Z,99892.20
2023-01-13T08:10:34.825Z,99901.42
2023-01-13T08:15:37.632Z,99920.58
2023-01-13T08:20:40.937Z,99927.36
2023-01-13T08:25:43.570Z,99934.80
2023-01-13T08:30:46.279Z,99944.61
2023-01-13T08:35:49.156Z,99931.48
2023-01-13T08:40:51.978Z,99931.30
2023-01-13T08:46:04.381Z,99940.17
2023-01-13T08:51:09.202Z,99933.30
2023-01-13T08:56:13.194Z,99937.55
2023-01-13T09:01:21.504Z,99965.77
2023-01-13T09:06:24.198Z,99963.88
2023-01-13T09:11:50.872Z,99950.38
2023-01-13T09:16:53.392Z,99912.14
2023-01-13T09:21:57.461Z,99852.14
2023-01-13T09:26:59.993Z,99938.25
2023-01-13T09:32:02.691Z,99944.11
2023-01-13T09:37:07.261Z,99946.48
2023-01-13T09:43:02.494Z,99943.89
2023-01-13T09:48:13.396Z,99942.83
2023-01-13T09:53:42.680Z,99919.77
2023-01-13T09:58:47.964Z,99934.02
2023-01-13T10:03:50.799Z,99951.59
2023-01-13T10:08:53.517Z,99947.59
2023-01-13T10:13:59.741Z,99948.83
2023-01-13T10:19:09.969Z,99959.38
2023-01-13T10:24:25.934Z,99959.78
2023-01-13T10:29:30.386Z,99955.15
2023-01-13T10:34:47.698Z,99948.39
2023-01-13T10:39:55.089Z,99953.30
2023-01-13T10:45:00.993Z,99956.52
2023-01-13T10:50:08.639Z,99948.85
2023-01-13T10:55:27.475Z,99946.30
2023-01-13T11:00:32.852Z,99950.51
2023-01-13T11:05:36.912Z,99949.74
2023-01-13T11:10:47.102Z,99949.45
2023-01-13T11:16:17.955Z,99950.65
2023-01-13T11:21:30.600Z,99953.59
2023-01-13T11:27:02.633Z,99954.34
2023-01-13T11:32:13.187Z,99948.08
2023-01-13T11:37:31.184Z,99942.38
2023-01-13T11:42:43.754Z,99943.80
2023-01-13T11:47:51.240Z,99948.33
2023-01-13T11:53:15.787Z,99938.79
2023-01-13T11:58:55.537Z,99943.05
2023-01-13T12:04:20.907Z,99945.83
2023-01-13T12:09:35.226Z,99945.99
2023-01-13T12:15:08.990Z,99946.67
2023-01-13T12:20:45.623Z,99940.77
2023-01-13T12:25:54.740Z,99944.50
2023-01-13T12:31:02.580Z,99943.58
2023-01-13T12:36:28.095Z,99949.81
2023-01-13T12:42:02.343Z,99942.09
2023-01-13T12:47:33.283Z,99949.70
2023-01-13T12:52:45.577Z,99958.92
2023-01-13T12:58:06.348Z,99962.74
2023-01-13T13:03:12.284Z,99969.91
2023-01-13T13:08:24.740Z,99968.13
2023-01-13T13:13:53.577Z,99964.98
2023-01-13T13:19:34.663Z,99979.37
2023-01-13T13:24:38.085Z,99987.30
2023-01-13T13:30:11.670Z,99992.86
2023-01-13T13:36:02.646Z,99991.48
2023-01-13T13:41:32.447Z,99996.35
2023-01-13T13:46:48.268Z,100008.09
2023-01-13T13:52:03.730Z,100009.86
2023-01-13T13:57:17.082Z,100016.23
2023-01-13T14:02:24.939Z,100011.20
2023-01-13T14:07:28.211Z,100015.43
2023-01-13T14:12:38.300Z,100015.23
2023-01-13T14:17:40.861Z,100014.13
2023-01-13T14:22:48.996Z,100020.09
2023-01-13T14:27:51.570Z,100018.02
2023-01-13T14:32:55.965Z,100024.79
2023-01-13T14:38:02.120Z,100023.63
2023-01-13T14:43:14.483Z,100016.80
2023-01-13T14:48:17.120Z,100020.17
2023-01-13T14:53:36.841Z,100020.19
2023-01-13T14:58:40.261Z,100020.10
2023-01-13T15:03:43.091Z,100024.39
2023-01-13T15:08:45.712Z,100029.48
2023-01-13T15:13:56.766Z,100031.50
2023-01-13T15:18:59.395Z,100030.83
2023-01-13T15:24:01.980Z,100040.05
2023-01-13T15:29:05.444Z,100041.70
2023-01-13T15:34:07.985Z,100046.71
2023-01-13T15:39:12.993Z,100043.73
2023-01-13T15:44:35.853Z,100049.91
2023-01-13T15:49:47.543Z,100052.98
2023-01-13T15:54:54.297Z,100043.08
2023-01-13T16:00:01.048Z,100050.36
2023-01-13T16:05:05.175Z,100055.60
2023-01-13T16:10:16.850Z,100055.27
2023-01-13T16:15:22.787Z,100068.58
2023-01-13T16:20:27.100Z,100075.98
2023-01-13T16:25:29.716Z,100080.50
2023-01-13T16:30:35.678Z,100090.07
2023-01-13T16:36:08.746Z,100098.02
2023-01-13T16:41:01.392Z,100111.66
2023-01-13T16:46:17.193Z,100109.30
2023-01-13T16:51:21.377Z,100117.91
2023-01-13T16:56:35.197Z,100119.30
2023-01-13T17:01:39.923Z,100131.38
2023-01-13T17:06:50.942Z,100132.04
2023-01-13T17:11:54.726Z,100139.98
2023-01-13T17:17:00.454Z,100147.13
2023-01-13T17:22:03.511Z,100154.17
2023-01-13T17:27:07.326Z,100155.16
2023-01-13T17:32:16.019Z,100170.08
2023-01-13T17:37:20.183Z,100172.83
2023-01-13T17:42:25.020Z,100181.30
2023-01-13T17:47:27.609Z,100187.64
2023-01-13T17:52:30.738Z,100190.13
2023-01-13T17:57:35.526Z,100196.25
2023-01-13T18:02:38.298Z,100181.63
2023-01-13T18:07:41.183Z,100183.11
2023-01-13T18:12:43.777Z,100190.64
2023-01-13T18:17:47.344Z,100194.70
2023-01-13T18:23:08.857Z,100202.50
2023-01-13T18:28:11.431Z,100200.00
2023-01-13T18:33:13.929Z,100210.57
2023-01-13T18:38:23.833Z,100212.39
2023-01-13T18:43:26.460Z,100214.10
2023-01-13T18:48:31.249Z,100213.39
2023-01-13T18:53:34.074Z,100221.59
2023-01-13T18:58:39.787Z,100229.95
2023-01-13T19:03:42.456Z,100229.99
2023-01-13T19:08:45.367Z,100240.95
2023-01-13T19:13:48.084Z,100233.11
2023-01-13T19:18:50.669Z,100247.02
2023-01-13T19:23:56.863Z,100253.03
2023-01-13T19:28:59.421Z,100257.57
2023-01-13T19:34:01.919Z,100265.71
2023-01-13T19:39:04.962Z,100267.74
2023-01-13T19:44:30.082Z,100274.58
2023-01-13T19:49:33.388Z,100282.71
2023-01-13T19:54:35.994Z,100290.06
2023-01-13T19:59:41.105Z,100297.17
2023-01-13T20:04:48.887Z,100294.89
2023-01-13T20:09:52.594Z,100311.23
2023-01-13T20:14:55.614Z,100313.77
2023-01-13T20:19:59.202Z,100315.93
2023-01-13T20:25:01.808Z,100322.77
2023-01-13T20:30:05.790Z,100328.16
2023-01-13T20:35:08.493Z,100348.70
2023-01-13T20:40:14.900Z,100349.32
2023-01-13T20:45:20.590Z,100351.73
2023-01-13T20:50:23.482Z,100352.66
2023-01-13T20:55:25.986Z,100352.77
2023-01-13T21:00:29.240Z,100355.27
2023-01-13T21:05:33.402Z,100359.45
2023-01-13T21:10:36.138Z,100361.38
2023-01-13T21:15:38.711Z,100363.50
2023-01-13T21:20:41.358Z,100359.38
2023-01-13T21:25:43.909Z,100366.25
2023-01-13T21:30:47.878Z,100374.33
2023-01-13T21:35:50.557Z,100380.02
2023-01-13T21:41:01.183Z,100385.77
2023-01-13T21:46:22.489Z,100391.59
2023-01-13T21:51:25.078Z,100386.44
2023-01-13T21:56:27.697Z,100393.55
2023-01-13T22:01:30.337Z,100400.94
2023-01-13T22:06:32.944Z,100403.46
2023-01-13T22:11:35.577Z,100403.58
2023-01-13T22:16:41.899Z,100412.41
2023-01-13T22:21:44.653Z,100421.11
2023-01-13T22:26:47.263Z,100426.19
2023-01-13T22:31:49.961Z,100436.02
2023-01-13T22:36:52.502Z,100439.00
2023-01-13T22:41:55.164Z,100448.58
2023-01-13T22:46:57.681Z,100451.10
2023-01-13T22:52:00.283Z,100460.79
2023-01-13T22:57:02.887Z,100461.38
2023-01-13T23:02:05.621Z,100470.84
2023-01-13T23:07:08.194Z,100471.02
2023-01-13T23:12:10.736Z,100475.70
2023-01-13T23:17:13.428Z,100482.39
2023-01-13T23:22:16.060Z,100485.41
2023-01-13T23:27:18.751Z,100482.58
2023-01-13T23:32:21.418Z,100484.70
2023-01-13T23:37:23.919Z,100486.63
2023-01-13T23:42:26.514Z,100496.70
2023-01-13T23:47:29.079Z,100495.45
2023-01-13T23:52:31.983Z,100494.15
2023-01-13T23:57:34.488Z,100494.82
